Time;durP1;ratioP1;P1;durP2;ratioP2;P2;SDS_P1;SDS_P2;PMS_P1;PMS_P2;Temp;Humidity;BMP_temperature;BMP_pressure;BME280_temperature;BME280_humidity;BME280_pressure;Samples;Min_cycle;Max_cycle;Signal;HPM_P1;HPM_P2
2021/05/30 00:00:07;;;;;;;10.65;8.80;;;;;;;12.18;74.94;102836.81;5116756;28;20122;-40
2021/05/30 00:02:33;;;;;;;15.20;8.82;;;;;;;12.08;75.36;102834.41;5116374;28;20038;-40
2021/05/30 00:04:58;;;;;;;9.77;8.65;;;;;;;11.99;75.94;102838.28;5116391;28;20137;-40
2021/05/30 00:07:24;;;;;;;9.50;7.85;;;;;;;11.96;75.40;102835.13;5116763;28;20093;-40
2021/05/30 00:09:53;;;;;;;10.13;9.13;;;;;;;11.95;75.48;102833.44;5117075;28;20069;-40
2021/05/30 00:12:20;;;;;;;9.88;8.88;;;;;;;11.91;75.66;102834.84;5115870;28;20053;-40
2021/05/30 00:14:45;;;;;;;9.50;8.50;;;;;;;11.93;75.68;102839.06;5116228;28;20531;-40
2021/05/30 00:17:12;;;;;;;11.27;8.60;;;;;;;11.79;76.15;102838.03;5115784;28;20106;-40
2021/05/30 00:19:38;;;;;;;9.73;8.75;;;;;;;11.75;76.15;102835.88;5116340;27;20023;-40
2021/05/30 00:22:03;;;;;;;10.75;8.77;;;;;;;11.69;76.17;102833.94;5116339;28;20507;-40
2021/05/30 00:24:29;;;;;;;9.38;8.48;;;;;;;11.78;75.83;102827.38;5115999;28;20027;-40
2021/05/30 00:26:54;;;;;;;10.57;8.73;;;;;;;11.74;75.41;102843.19;5115884;28;20028;-40
2021/05/30 00:29:19;;;;;;;9.17;8.20;;;;;;;11.71;75.44;102838.16;5116697;27;20032;-40
2021/05/30 00:31:45;;;;;;;9.57;7.80;;;;;;;11.69;75.70;102844.78;5115747;28;20020;-40
2021/05/30 00:34:10;;;;;;;9.13;8.23;;;;;;;11.66;75.65;102840.56;5116112;28;20027;-40
2021/05/30 00:36:35;;;;;;;9.40;8.27;;;;;;;11.60;75.64;102839.47;5116073;28;20379;-40
2021/05/30 00:39:01;;;;;;;9.20;8.30;;;;;;;11.57;76.05;102850.69;5115463;28;20027;-40
2021/05/30 00:41:27;;;;;;;8.73;7.90;;;;;;;11.46;74.79;102840.31;5115530;28;20045;-40
2021/05/30 00:43:54;;;;;;;7.87;7.07;;;;;;;11.43;75.70;102840.72;5114921;27;20036;-40
2021/05/30 00:46:20;;;;;;;8.60;7.72;;;;;;;11.41;75.76;102840.03;5115546;28;20749;-40
2021/05/30 00:48:46;;;;;;;;;;;;;;;11.57;74.23;102841.72;5115974;28;20464;-40
2021/05/30 00:51:12;;;;;;;8.77;7.80;;;;;;;11.16;76.22;102844.91;5115467;28;19936;-40
2021/05/30 00:53:38;;;;;;;;;;;;;;;11.30;74.61;102841.34;5116398;28;20046;-40
2021/05/30 00:56:05;;;;;;;8.10;7.30;;;;;;;11.14;77.07;102841.56;5114905;28;20344;-40
2021/05/30 00:58:30;;;;;;;7.95;7.07;;;;;;;11.19;76.39;102844.53;5115266;28;20528;-40
2021/05/30 01:00:56;;;;;;;8.20;6.93;;;;;;;11.20;76.76;102850.78;5115013;28;20024;-40
2021/05/30 01:03:21;;;;;;;9.68;7.70;;;;;;;11.13;76.55;102844.47;5115211;28;20276;-40
2021/05/30 01:05:47;;;;;;;7.93;7.13;;;;;;;11.13;76.65;102849.88;5115381;28;20031;-40
2021/05/30 01:08:15;;;;;;;7.68;6.88;;;;;;;11.13;76.38;102849.88;5115459;28;20508;-40
2021/05/30 01:10:46;;;;;;;9.55;8.15;;;;;;;11.00;76.46;102854.03;5115296;28;20051;-40
2021/05/30 01:13:13;;;;;;;8.18;6.97;;;;;;;11.03;76.49;102850.97;5114609;28;20030;-40
2021/05/30 01:15:40;;;;;;;10.40;7.55;;;;;;;11.00;76.54;102848.63;5115705;28;20418;-40
2021/05/30 01:18:06;;;;;;;8.07;7.25;;;;;;;11.02;76.42;102849.28;5114690;28;20470;-40
2021/05/30 01:20:32;;;;;;;8.77;7.28;;;;;;;11.01;76.29;102852.19;5114927;28;20482;-40
2021/05/30 01:23:05;;;;;;;10.32;7.70;;;;;;;10.96;76.85;102855.44;5114603;28;20035;-40
2021/05/30 01:25:30;;;;;;;7.75;6.95;;;;;;;11.00;76.16;102845.09;5113601;28;20072;-40
2021/05/30 01:27:55;;;;;;;8.03;7.20;;;;;;;10.90;76.58;102849.94;5114998;28;20031;-40
2021/05/30 01:30:21;;;;;;;8.27;7.43;;;;;;;10.94;76.70;102853.97;5115094;28;20328;-40
2021/05/30 01:32:47;;;;;;;8.10;7.30;;;;;;;10.76;77.08;102844.28;5114618;28;20027;-40
2021/05/30 01:35:14;;;;;;;9.88;7.82;;;;;;;10.64;77.20;102847.63;5113365;28;20031;-40
2021/05/30 01:37:40;;;;;;;8.38;7.35;;;;;;;10.54;77.71;102853.28;5114590;28;20112;-40
2021/05/30 01:40:07;;;;;;;8.38;7.43;;;;;;;10.67;77.89;102845.41;5114340;28;20028;-40
2021/05/30 01:42:33;;;;;;;9.07;7.80;;;;;;;10.55;77.61;102849.56;5114315;28;20059;-40
2021/05/30 01:44:58;;;;;;;;;;;;;;;10.77;75.89;102845.13;5114612;28;20490;-40
2021/05/30 01:47:24;;;;;;;8.77;7.80;;;;;;;10.57;77.26;102842.94;5114035;28;19933;-40
2021/05/30 01:49:49;;;;;;;9.70;7.82;;;;;;;10.55;77.49;102842.28;5114907;28;20106;-40
2021/05/30 01:52:15;;;;;;;8.47;7.47;;;;;;;10.49;77.02;102839.47;5114271;28;20145;-40
2021/05/30 01:54:43;;;;;;;9.95;8.38;;;;;;;10.47;77.81;102839.66;5114464;27;20288;-40
2021/05/30 01:57:10;;;;;;;11.20;8.23;;;;;;;10.31;77.98;102847.91;5114148;28;20024;-40
2021/05/30 01:59:36;;;;;;;8.40;7.60;;;;;;;10.38;77.88;102843.44;5114138;28;20121;-40
2021/05/30 02:02:02;;;;;;;;;;;;;;;10.57;76.18;102836.69;5114429;28;20038;-40
2021/05/30 02:04:34;;;;;;;8.98;7.72;;;;;;;10.39;78.02;102834.28;5114136;28;19947;-40
2021/05/30 02:07:00;;;;;;;8.88;7.93;;;;;;;10.38;77.11;102837.19;5113848;28;20120;-40
2021/05/30 02:09:29;;;;;;;8.63;7.82;;;;;;;10.24;78.14;102836.09;5113533;28;20042;-40
2021/05/30 02:11:54;;;;;;;9.90;7.72;;;;;;;10.30;77.49;102838.13;5113886;28;20089;-40
2021/05/30 02:14:20;;;;;;;9.45;7.72;;;;;;;10.33;77.53;102832.31;5113420;28;20031;-40
2021/05/30 02:16:46;;;;;;;10.25;8.45;;;;;;;10.19;77.59;102842.03;5113850;28;20019;-40
2021/05/30 02:19:12;;;;;;;9.95;8.98;;;;;;;10.14;78.30;102838.19;5114117;28;20041;-40
2021/05/30 02:21:49;;;;;;;9.30;8.30;;;;;;;10.10;78.04;102836.84;5113548;28;20024;-40
2021/05/30 02:24:16;;;;;;;8.75;7.93;;;;;;;10.09;77.93;102836.00;5114581;28;20121;-40
2021/05/30 02:26:42;;;;;;;10.52;9.23;;;;;;;10.09;77.74;102845.97;5114185;28;20026;-40
2021/05/30 02:29:09;;;;;;;10.93;8.95;;;;;;;10.15;77.92;102842.56;5113802;28;20042;-41
2021/05/30 02:31:35;;;;;;;11.10;9.02;;;;;;;10.16;77.66;102839.69;5114174;28;20419;-40
2021/05/30 02:34:00;;;;;;;10.77;9.60;;;;;;;9.91;78.19;102839.00;5114183;28;20080;-40
2021/05/30 02:36:27;;;;;;;11.02;9.05;;;;;;;9.95;78.10;102845.72;5114499;28;20039;-40
2021/05/30 02:38:53;;;;;;;10.23;9.23;;;;;;;9.96;78.24;102842.03;5113866;28;20028;-40
2021/05/30 02:41:20;;;;;;;11.35;9.20;;;;;;;9.95;77.83;102840.31;5113920;28;20468;-40
2021/05/30 02:43:47;;;;;;;10.48;9.48;;;;;;;9.95;78.28;102840.31;5112239;28;20030;-40
2021/05/30 02:46:13;;;;;;;10.75;9.65;;;;;;;9.85;77.99;102837.00;5113782;28;20055;-40
2021/05/30 02:48:38;;;;;;;10.60;9.07;;;;;;;9.91;78.40;102841.72;5113591;28;20455;-40
2021/05/30 02:51:03;;;;;;;11.60;9.60;;;;;;;9.90;78.23;102836.47;5113513;28;20030;-40
2021/05/30 02:53:31;;;;;;;11.13;9.65;;;;;;;9.87;76.73;102836.84;5112673;28;20074;-40
2021/05/30 02:55:58;;;;;;;11.35;10.23;;;;;;;9.74;78.09;102837.41;5114193;28;20039;-45
2021/05/30 02:58:24;;;;;;;11.20;9.70;;;;;;;9.77;77.59;102837.06;5113474;28;20077;-40
2021/05/30 03:00:49;;;;;;;;;;;;;;;9.96;77.08;102833.06;5114164;28;20035;-40
2021/05/30 03:03:15;;;;;;;11.48;9.43;;;;;;;9.76;77.82;102835.34;5113320;28;19908;-40
2021/05/30 03:05:40;;;;;;;13.68;10.73;;;;;;;9.68;78.66;102840.81;5113651;28;20420;-40
2021/05/30 03:08:06;;;;;;;11.03;9.93;;;;;;;9.61;77.83;102839.81;5114021;28;20043;-40
2021/05/30 03:10:31;;;;;;;11.00;9.87;;;;;;;9.66;78.26;102845.53;5113609;28;20450;-40
2021/05/30 03:12:58;;;;;;;12.02;9.95;;;;;;;9.61;78.07;102845.22;5111880;28;20387;-40
2021/05/30 03:15:23;;;;;;;11.52;10.43;;;;;;;9.43;79.13;102838.22;5113824;28;20416;-40
2021/05/30 03:17:48;;;;;;;12.67;11.43;;;;;;;9.51;78.93;102843.56;5113009;28;20032;-40
2021/05/30 03:20:15;;;;;;;14.93;10.17;;;;;;;9.36;78.98;102839.94;5115131;28;20040;-40
2021/05/30 03:22:40;;;;;;;12.70;10.82;;;;;;;9.42;78.47;102841.09;5117193;28;20035;-40
2021/05/30 03:25:06;;;;;;;12.57;11.10;;;;;;;9.48;77.98;102837.72;5117522;28;20027;-40
2021/05/30 03:27:32;;;;;;;11.70;10.15;;;;;;;9.33;78.67;102848.41;5117073;28;20484;-40
2021/05/30 03:29:57;;;;;;;13.38;10.77;;;;;;;9.39;78.83;102839.59;5117474;27;20337;-40
2021/05/30 03:32:23;;;;;;;12.23;10.93;;;;;;;9.44;78.16;102849.88;5117281;28;20032;-40
2021/05/30 03:34:49;;;;;;;12.32;10.95;;;;;;;9.40;78.04;102838.56;5117318;28;20379;-40
2021/05/30 03:37:15;;;;;;;15.40;11.73;;;;;;;9.30;78.43;102846.03;5116977;28;20054;-40
2021/05/30 03:39:42;;;;;;;12.67;11.37;;;;;;;9.27;77.96;102840.97;5117215;28;20027;-40
2021/05/30 03:42:10;;;;;;;12.75;11.38;;;;;;;9.21;79.20;102849.78;5116818;27;20487;-40
2021/05/30 03:44:36;;;;;;;11.30;10.18;;;;;;;9.25;79.16;102838.44;5116786;28;20038;-40
2021/05/30 03:47:02;;;;;;;12.60;11.33;;;;;;;9.31;78.41;102847.72;5116193;28;20039;-40
2021/05/30 03:49:27;;;;;;;15.43;11.38;;;;;;;9.32;78.63;102845.84;5115472;28;20019;-39
2021/05/30 03:51:52;;;;;;;12.63;11.33;;;;;;;9.30;78.72;102846.03;5115278;28;20042;-40
2021/05/30 03:54:18;;;;;;;11.80;10.53;;;;;;;9.23;78.41;102840.50;5116963;28;20102;-39
2021/05/30 03:56:43;;;;;;;12.53;11.07;;;;;;;9.25;78.34;102851.94;5116509;28;20058;-40
2021/05/30 03:59:09;;;;;;;13.02;11.23;;;;;;;9.36;78.21;102852.59;5117097;28;20073;-40
2021/05/30 04:01:37;;;;;;;14.80;11.40;;;;;;;9.23;78.55;102845.06;5116477;28;20436;-40
2021/05/30 04:04:03;;;;;;;14.20;11.77;;;;;;;9.30;79.10;102854.13;5116230;28;20106;-40
2021/05/30 04:06:28;;;;;;;12.88;11.32;;;;;;;9.18;78.62;102852.84;5116468;28;20419;-40
2021/05/30 04:08:53;;;;;;;13.97;11.70;;;;;;;9.29;78.57;102855.16;5116739;28;20043;-40
2021/05/30 04:11:19;;;;;;;14.37;11.80;;;;;;;9.27;78.20;102847.25;5116300;28;20027;-40
2021/05/30 04:13:44;;;;;;;13.77;11.57;;;;;;;9.34;78.24;102858.19;5116569;28;20062;-40
2021/05/30 04:16:10;;;;;;;17.40;12.10;;;;;;;9.26;78.58;102850.94;5116271;28;20487;-40
2021/05/30 04:18:36;;;;;;;13.57;12.05;;;;;;;9.23;78.53;102847.75;5115850;28;20027;-40
2021/05/30 04:21:03;;;;;;;13.48;12.07;;;;;;;9.35;78.15;102846.34;5116408;28;20031;-40
2021/05/30 04:23:29;;;;;;;15.80;12.02;;;;;;;9.32;78.77;102848.56;5116220;28;20027;-40
2021/05/30 04:25:56;;;;;;;12.20;10.95;;;;;;;9.33;78.25;102852.97;5116616;28;20038;-40
2021/05/30 04:28:21;;;;;;;14.70;12.02;;;;;;;9.28;78.20;102846.22;5115658;28;20035;-40
2021/05/30 04:30:46;;;;;;;17.50;12.27;;;;;;;9.28;79.18;102846.22;5115780;28;20028;-40
2021/05/30 04:33:12;;;;;;;14.37;12.33;;;;;;;9.44;78.66;102849.88;5115865;28;20421;-40
2021/05/30 04:35:37;;;;;;;13.57;11.50;;;;;;;9.49;78.35;102850.19;5116144;28;20411;-40
2021/05/30 04:38:02;;;;;;;13.53;12.13;;;;;;;9.59;78.39;102850.81;5116300;28;20049;-39
2021/05/30 04:40:28;;;;;;;13.17;11.73;;;;;;;9.61;78.11;102862.28;5115788;28;20119;-39
2021/05/30 04:42:53;;;;;;;13.33;11.07;;;;;;;9.65;77.38;102857.38;5115361;27;20077;-39
2021/05/30 04:45:19;;;;;;;14.50;12.03;;;;;;;9.64;77.82;102850.28;5115711;28;20028;-39
2021/05/30 04:47:45;;;;;;;13.60;11.77;;;;;;;9.70;77.88;102849.59;5115309;28;20490;-40
2021/05/30 04:50:12;;;;;;;18.70;12.38;;;;;;;9.81;78.06;102857.31;5115839;28;20054;-40
2021/05/30 04:52:39;;;;;;;17.92;12.43;;;;;;;9.90;78.23;102855.38;5115430;28;20031;-40
2021/05/30 04:55:05;;;;;;;14.35;12.82;;;;;;;9.95;77.56;102855.69;5115466;28;20028;-40
2021/05/30 04:57:30;;;;;;;15.80;12.02;;;;;;;9.95;76.89;102847.59;5115268;28;20032;-39
2021/05/30 04:59:56;;;;;;;14.10;12.30;;;;;;;10.04;77.21;102850.06;5115636;28;20023;-40
2021/05/30 05:02:21;;;;;;;13.73;12.33;;;;;;;10.04;76.97;102843.81;5115038;28;20135;-39
2021/05/30 05:04:46;;;;;;;14.80;13.00;;;;;;;10.05;76.53;102851.78;5116085;28;20020;-40
2021/05/30 05:07:12;;;;;;;13.63;11.73;;;;;;;10.12;76.16;102851.03;5114913;28;20039;-40
2021/05/30 05:09:37;;;;;;;15.63;12.40;;;;;;;10.01;75.68;102866.66;5115462;27;20046;-39
2021/05/30 05:12:03;;;;;;;15.10;12.17;;;;;;;10.09;75.52;102851.38;5115074;28;20053;-40
2021/05/30 05:14:28;;;;;;;14.20;12.70;;;;;;;10.13;76.29;102861.66;5115267;28;20027;-40
2021/05/30 05:16:53;;;;;;;15.07;13.47;;;;;;;10.08;76.09;102853.25;5114742;28;20030;-40
2021/05/30 05:19:19;;;;;;;15.67;12.97;;;;;;;10.17;76.04;102848.66;5114706;28;20031;-40
2021/05/30 05:21:44;;;;;;;14.83;13.17;;;;;;;10.25;76.27;102857.59;5115251;28;20027;-40
2021/05/30 05:24:09;;;;;;;15.00;13.47;;;;;;;10.33;76.45;102862.06;5114959;27;20024;-39
2021/05/30 05:26:35;;;;;;;16.10;12.87;;;;;;;10.33;75.13;102864.78;5115152;28;20354;-39
2021/05/30 05:29:00;;;;;;;15.70;12.67;;;;;;;10.41;75.50;102866.59;5114743;28;20023;-39
2021/05/30 05:31:26;;;;;;;14.27;12.77;;;;;;;10.39;75.44;102868.63;5114733;28;20028;-40
2021/05/30 05:33:51;;;;;;;15.00;13.20;;;;;;;10.49;75.75;102872.78;5114988;28;20019;-40
2021/05/30 05:36:17;;;;;;;15.30;13.20;;;;;;;10.45;75.46;102866.06;5115014;28;20118;-40
2021/05/30 05:38:43;;;;;;;14.02;12.60;;;;;;;10.57;75.31;102864.59;5114741;28;20032;-40
2021/05/30 05:41:08;;;;;;;15.80;14.10;;;;;;;10.52;75.82;102860.75;5114546;28;20130;-40
2021/05/30 05:43:33;;;;;;;15.57;13.77;;;;;;;10.70;75.01;102855.03;5114356;28;20110;-40
2021/05/30 05:45:59;;;;;;;17.23;14.27;;;;;;;10.81;75.88;102862.69;5114745;28;20371;-40
2021/05/30 05:48:24;;;;;;;14.83;13.33;;;;;;;10.93;75.84;102861.25;5114678;28;20026;-40
2021/05/30 05:50:50;;;;;;;15.43;13.87;;;;;;;10.88;74.82;102854.66;5114907;28;20035;-40
2021/05/30 05:53:16;;;;;;;15.33;13.53;;;;;;;10.91;75.01;102860.56;5114211;28;20063;-40
2021/05/30 05:55:41;;;;;;;;;;;;;;;10.99;75.11;102860.50;5115259;28;20368;-39
2021/05/30 05:58:07;;;;;;;14.77;12.82;;;;;;;11.05;76.10;102853.50;5114507;28;19968;-39
2021/05/30 06:00:33;;;;;;;18.15;13.95;;;;;;;11.13;75.88;102858.84;5113957;28;20028;-40
2021/05/30 06:02:59;;;;;;;15.10;13.50;;;;;;;11.24;74.80;102857.53;5114130;28;20110;-39
2021/05/30 06:05:25;;;;;;;19.02;13.38;;;;;;;11.29;73.85;102855.94;5114098;28;20030;-40
2021/05/30 06:07:51;;;;;;;;;;;;;;;11.59;74.44;102855.91;5115160;28;20044;-40
2021/05/30 06:10:22;;;;;;;14.95;13.10;;;;;;;11.46;74.35;102859.28;5114177;28;19912;-40
2021/05/30 06:12:49;;;;;;;14.40;12.82;;;;;;;11.68;73.04;102856.66;5113730;28;20035;-40
2021/05/30 06:15:14;;;;;;;15.32;13.73;;;;;;;11.58;72.77;102865.06;5113801;28;20468;-40
2021/05/30 06:17:40;;;;;;;15.30;13.70;;;;;;;11.50;72.90;102868.72;5114149;28;20069;-40
2021/05/30 06:20:06;;;;;;;16.48;13.35;;;;;;;11.51;74.01;102859.56;5113979;28;20055;-40
2021/05/30 06:22:32;;;;;;;;;;;;;;;11.67;73.18;102868.53;5113982;28;20031;-40
2021/05/30 06:24:57;;;;;;;15.70;12.57;;;;;;;11.62;73.25;102862.84;5113965;28;20343;-40
2021/05/30 06:27:23;;;;;;;15.45;13.85;;;;;;;11.64;73.66;102868.91;5113895;28;20092;-40
2021/05/30 06:29:49;;;;;;;17.45;14.10;;;;;;;11.57;73.75;102864.25;5113912;28;20031;-40
2021/05/30 06:32:15;;;;;;;16.33;13.68;;;;;;;11.66;74.63;102856.00;5113712;28;20455;-40
2021/05/30 06:34:40;;;;;;;;;;;;;;;11.94;74.41;102859.69;5114500;28;20024;-40
2021/05/30 06:37:06;;;;;;;15.18;13.02;;;;;;;12.01;74.22;102868.78;5113831;28;19915;-40
2021/05/30 06:39:31;;;;;;;16.48;13.30;;;;;;;12.14;72.93;102869.94;5114014;28;20023;-40
2021/05/30 06:41:57;;;;;;;15.53;13.20;;;;;;;12.07;72.16;102862.56;5113669;28;20488;-41
2021/05/30 06:44:22;;;;;;;16.45;14.02;;;;;;;12.13;73.26;102869.09;5113709;28;20472;-40
2021/05/30 06:46:48;;;;;;;16.08;14.48;;;;;;;12.12;73.01;102859.28;5113696;28;20039;-40
2021/05/30 06:49:13;;;;;;;16.87;14.60;;;;;;;12.18;72.81;102858.50;5113716;28;20031;-42
2021/05/30 06:51:39;;;;;;;16.00;14.40;;;;;;;12.30;72.70;102861.56;5113731;28;20368;-40
2021/05/30 06:54:06;;;;;;;16.13;13.85;;;;;;;12.36;72.46;102868.94;5114258;28;20028;-40
2021/05/30 06:56:31;;;;;;;16.58;14.68;;;;;;;12.47;72.23;102860.25;5118092;28;20360;-41
2021/05/30 06:58:57;;;;;;;16.88;15.10;;;;;;;12.43;72.85;102863.56;5118110;28;20107;-40
2021/05/30 07:01:23;;;;;;;16.77;14.52;;;;;;;12.49;72.40;102863.63;5118523;28;20394;-40
2021/05/30 07:03:50;;;;;;;17.55;15.40;;;;;;;12.51;73.44;102864.28;5117663;28;20378;-42
2021/05/30 07:06:16;;;;;;;18.50;16.63;;;;;;;12.41;73.08;102855.63;5117795;28;20046;-40
2021/05/30 07:08:42;;;;;;;17.15;15.32;;;;;;;12.58;72.74;102851.59;5117529;28;20112;-41
2021/05/30 07:11:08;;;;;;;16.60;14.57;;;;;;;12.64;72.25;102858.13;5117477;28;20039;-39
2021/05/30 07:13:34;;;;;;;20.90;15.88;;;;;;;12.75;71.70;102851.31;5117445;28;20098;-39
2021/05/30 07:15:59;;;;;;;16.15;14.55;;;;;;;12.99;71.99;102853.59;5117242;28;20437;-40
2021/05/30 07:18:25;;;;;;;17.23;15.43;;;;;;;13.01;70.84;102851.50;5117725;28;20032;-40
2021/05/30 07:20:53;;;;;;;17.65;15.85;;;;;;;13.04;71.71;102855.72;5117433;28;20062;-40
2021/05/30 07:23:19;;;;;;;18.80;15.57;;;;;;;13.23;71.42;102857.75;5117226;28;20173;-40
2021/05/30 07:25:44;;;;;;;18.88;15.63;;;;;;;13.28;70.63;102849.00;5117590;27;20028;-40
2021/05/30 07:28:10;;;;;;;18.43;16.53;;;;;;;13.09;70.78;102858.69;5117214;28;20121;-40
2021/05/30 07:30:35;;;;;;;18.23;16.33;;;;;;;13.17;70.85;102858.50;5117736;28;20303;-40
2021/05/30 07:33:02;;;;;;;19.20;17.15;;;;;;;13.24;71.09;102862.16;5116671;28;20028;-39
2021/05/30 07:35:29;;;;;;;17.17;15.32;;;;;;;13.34;71.46;102859.06;5117105;28;20028;-40
2021/05/30 07:37:55;;;;;;;18.38;16.48;;;;;;;13.39;70.85;102857.41;5116977;27;20028;-40
2021/05/30 07:40:21;;;;;;;19.52;16.08;;;;;;;13.62;71.58;102864.44;5117486;28;20035;-40
2021/05/30 07:42:47;;;;;;;18.52;16.70;;;;;;;13.65;69.39;102862.13;5116836;28;20024;-40
2021/05/30 07:45:13;;;;;;;18.63;16.53;;;;;;;13.74;70.38;102864.69;5116936;28;20459;-40
2021/05/30 07:47:39;;;;;;;19.27;17.30;;;;;;;13.74;69.39;102861.97;5116434;28;20024;-40
2021/05/30 07:50:06;;;;;;;;;;;;;;;13.87;68.95;102867.47;5117583;27;20367;-40
2021/05/30 07:52:31;;;;;;;18.97;16.53;;;;;;;13.98;68.75;102857.88;5116604;28;19915;-40
2021/05/30 07:54:57;;;;;;;20.17;16.15;;;;;;;14.11;69.06;102864.19;5116659;28;20046;-40
2021/05/30 07:57:22;;;;;;;18.80;16.73;;;;;;;14.09;67.85;102871.72;5116934;28;20055;-40
2021/05/30 07:59:47;;;;;;;18.00;15.63;;;;;;;14.15;68.07;102862.75;5117438;28;20506;-40
2021/05/30 08:02:13;;;;;;;17.40;15.05;;;;;;;14.27;68.04;102862.97;5116777;28;20031;-40
2021/05/30 08:04:38;;;;;;;17.37;15.67;;;;;;;14.40;67.10;102862.16;5116473;28;20027;-40
2021/05/30 08:07:04;;;;;;;18.27;15.77;;;;;;;14.50;67.23;102865.34;5114817;28;20375;-39
2021/05/30 08:09:30;;;;;;;17.15;15.45;;;;;;;14.59;67.20;102864.09;5116641;28;20020;-39
2021/05/30 08:11:58;;;;;;;18.05;15.35;;;;;;;14.65;67.23;102863.25;5116204;28;20027;-40
2021/05/30 08:14:23;;;;;;;18.70;15.70;;;;;;;14.71;66.92;102855.28;5116325;28;20023;-39
2021/05/30 08:16:49;;;;;;;16.65;14.85;;;;;;;14.99;67.70;102861.34;5116237;28;20405;-39
2021/05/30 08:19:14;;;;;;;18.50;15.07;;;;;;;15.06;65.31;102859.44;5116706;27;20028;-40
2021/05/30 08:21:41;;;;;;;16.73;14.85;;;;;;;15.36;66.43;102858.97;5116091;28;20071;-40
2021/05/30 08:24:07;;;;;;;17.35;14.90;;;;;;;15.33;64.73;102859.41;5116154;28;20024;-40
2021/05/30 08:26:32;;;;;;;16.52;14.68;;;;;;;15.39;64.96;102856.66;5116594;28;20368;-40
2021/05/30 08:28:57;;;;;;;18.00;15.50;;;;;;;15.56;65.06;102847.97;5116846;27;20038;-40
2021/05/30 08:31:23;;;;;;;19.50;15.47;;;;;;;15.53;62.76;102851.16;5115982;27;20077;-40
2021/05/30 08:33:48;;;;;;;18.20;13.68;;;;;;;15.65;63.64;102850.28;5115601;28;20140;-40
2021/05/30 08:36:13;;;;;;;15.17;13.67;;;;;;;15.80;62.83;102849.19;5116274;27;20063;-40
2021/05/30 08:38:39;;;;;;;16.50;14.80;;;;;;;15.96;61.55;102845.97;5115717;28;20312;-40
2021/05/30 08:41:04;;;;;;;16.80;14.95;;;;;;;16.04;61.05;102850.31;5115993;27;20023;-40
2021/05/30 08:43:30;;;;;;;13.15;11.38;;;;;;;16.15;58.77;102846.88;5115665;28;20431;-40
2021/05/30 08:45:55;;;;;;;17.33;12.98;;;;;;;16.19;58.80;102845.38;5115998;28;20031;-40
2021/05/30 08:48:21;;;;;;;15.20;13.13;;;;;;;16.26;58.58;102839.91;5115386;28;20383;-40
2021/05/30 08:51:05;;;;;;;;;;;;;;;16.50;58.74;102847.28;5116133;28;20076;-40
2021/05/30 08:53:36;;;;;;;14.25;12.27;;;;;;;16.66;59.68;102845.88;5115760;28;19911;-40
2021/05/30 08:56:03;;;;;;;14.65;11.80;;;;;;;16.70;56.76;102849.84;5115817;28;20367;-40
2021/05/30 08:58:36;;;;;;;14.27;11.30;;;;;;;16.62;57.62;102848.22;5115702;28;20420;-40
2021/05/30 09:01:09;;;;;;;13.30;11.88;;;;;;;16.79;58.48;102842.22;5116236;28;20023;-40
2021/05/30 09:03:52;;;;;;;14.75;11.40;;;;;;;17.00;56.78;102836.34;5115330;28;20071;-40
2021/05/30 09:06:18;;;;;;;14.88;10.63;;;;;;;17.07;55.72;102837.09;5114638;28;20107;-40
2021/05/30 09:08:44;;;;;;;13.07;9.73;;;;;;;17.13;54.21;102841.69;5115837;28;20055;-40
2021/05/30 09:11:10;;;;;;;10.20;9.05;;;;;;;17.02;55.14;102826.03;5115531;28;20083;-40
2021/05/30 09:13:54;;;;;;;11.05;9.85;;;;;;;17.20;56.21;102827.94;5115115;28;20030;-40
2021/05/30 09:16:23;;;;;;;11.77;9.75;;;;;;;17.34;55.85;102826.72;5115481;28;20023;-40
2021/05/30 09:18:49;;;;;;;10.48;9.38;;;;;;;17.05;52.61;102833.78;5114737;28;20028;-40
2021/05/30 09:21:14;;;;;;;11.57;9.15;;;;;;;17.24;53.58;102826.44;5113562;28;20104;-40
2021/05/30 09:23:45;;;;;;;9.55;8.50;;;;;;;17.40;54.94;102834.00;5114899;28;20024;-40
2021/05/30 09:26:19;;;;;;;10.15;8.75;;;;;;;17.35;52.65;102828.41;5114730;28;20063;-41
2021/05/30 09:29:06;;;;;;;10.13;9.10;;;;;;;17.41;54.19;102827.47;5114903;28;20028;-40
2021/05/30 09:31:58;;;;;;;12.65;8.18;;;;;;;17.69;55.34;102818.72;5114713;28;20039;-40
2021/05/30 09:34:27;;;;;;;8.85;7.95;;;;;;;17.56;50.72;102824.34;5115072;28;20016;-41
2021/05/30 09:36:53;;;;;;;9.18;7.15;;;;;;;17.69;52.19;102818.72;5114681;28;20039;-40
2021/05/30 09:39:37;;;;;;;7.30;6.57;;;;;;;18.06;52.33;102815.94;5114885;28;20028;-41
2021/05/30 09:42:32;;;;;;;7.70;6.90;;;;;;;18.20;51.58;102819.28;5114408;28;20032;-41
2021/05/30 09:44:59;;;;;;;9.18;6.78;;;;;;;18.31;49.66;102823.13;5115367;28;20042;-41
2021/05/30 09:47:51;;;;;;;8.68;6.25;;;;;;;18.33;48.15;102820.97;5114850;28;20080;-40
2021/05/30 09:50:20;;;;;;;7.10;5.80;;;;;;;18.45;51.32;102816.38;5112913;28;20042;-40
2021/05/30 09:52:47;;;;;;;8.02;7.20;;;;;;;18.26;47.96;102812.88;5114877;28;20028;-41
2021/05/30 09:55:16;;;;;;;7.78;6.10;;;;;;;18.47;51.15;102803.25;5114598;27;20027;-41
2021/05/30 09:58:01;;;;;;;7.20;5.65;;;;;;;18.40;46.92;102795.16;5121656;27;20023;-41
2021/05/30 10:00:27;;;;;;;7.35;5.53;;;;;;;18.33;48.95;102807.28;5114528;28;20020;-41
2021/05/30 10:02:54;;;;;;;6.93;6.07;;;;;;;18.47;46.61;102806.84;5114860;28;20038;-41
2021/05/30 10:05:19;;;;;;;8.15;5.07;;;;;;;18.62;45.26;102800.88;5124084;27;20028;-41
2021/05/30 10:07:45;;;;;;;;;;;;;;;18.66;44.42;102796.59;5112300;28;20055;-39
2021/05/30 10:10:11;;;;;;;7.15;4.90;;;;;;;18.65;45.00;102786.72;5114316;28;19926;-38
2021/05/30 10:12:36;;;;;;;;;;;;;;;18.87;47.09;102794.38;5114294;28;20024;-40
2021/05/30 10:15:01;;;;;;;6.38;4.38;;;;;;;19.13;45.82;102793.88;5115369;27;19911;-41
2021/05/30 10:17:28;;;;;;;;;;;;;;;19.23;43.78;102793.25;5114682;28;20111;-41
2021/05/30 10:19:54;;;;;;;7.07;4.30;;;;;;;19.28;45.45;102791.44;5115032;28;20255;-41
2021/05/30 10:22:20;;;;;;;5.85;4.88;;;;;;;19.35;44.11;102798.69;5132959;27;20425;-41
2021/05/30 10:24:46;;;;;;;;;;;;;;;19.52;44.84;102789.47;5133321;27;20056;-41
2021/05/30 10:27:18;;;;;;;6.00;4.90;;;;;;;19.33;45.35;102790.72;5134882;27;20462;-41
2021/05/30 10:30:14;;;;;;;6.35;5.32;;;;;;;19.17;43.94;102792.28;5133685;27;20027;-41
2021/05/30 10:32:42;;;;;;;5.07;4.28;;;;;;;19.38;43.03;102792.75;5135013;27;20102;-42
2021/05/30 10:35:07;;;;;;;6.05;4.30;;;;;;;19.37;44.22;102791.06;5132763;27;20027;-41
2021/05/30 10:37:38;;;;;;;;;;;;;;;19.60;44.61;102790.19;5131595;27;20037;-41
2021/05/30 10:40:22;;;;;;;5.20;4.25;;;;;;;19.57;42.82;102786.00;5114126;28;19934;-41
2021/05/30 10:43:10;;;;;;;4.97;3.90;;;;;;;19.43;40.05;102781.88;5114161;28;20121;-41
2021/05/30 10:45:44;;;;;;;5.30;3.80;;;;;;;19.40;42.13;102793.31;5114985;28;20046;-39
2021/05/30 10:48:11;;;;;;;8.20;4.20;;;;;;;19.76;44.37;102779.25;5114077;28;20043;-39
2021/05/30 10:50:48;;;;;;;4.57;4.00;;;;;;;19.94;42.06;102783.69;5113805;28;20417;-39
2021/05/30 10:53:46;;;;;;;5.00;3.90;;;;;;;20.05;40.08;102776.47;5124275;28;20035;-41
2021/05/30 10:56:15;;;;;;;4.82;3.67;;;;;;;20.00;41.46;102776.38;5114996;28;20032;-41
2021/05/30 10:58:43;;;;;;;5.68;3.75;;;;;;;19.80;40.04;102769.44;5117636;28;20060;-41
2021/05/30 11:01:33;;;;;;;3.78;3.05;;;;;;;20.12;40.66;102755.19;5124220;28;20027;-39
2021/05/30 11:04:30;;;;;;;6.03;2.60;;;;;;;20.41;41.82;102763.34;5113585;28;20023;-40
2021/05/30 11:07:20;;;;;;;3.50;2.20;;;;;;;20.79;42.49;102749.66;5121038;28;20050;-40
2021/05/30 11:09:49;;;;;;;3.33;2.63;;;;;;;20.75;39.93;102744.91;5119854;28;20050;-41
2021/05/30 11:12:21;;;;;;;3.25;2.10;;;;;;;20.73;39.31;102749.81;5126732;27;20118;-41
2021/05/30 11:15:12;;;;;;;6.85;3.90;;;;;;;20.76;38.46;102744.66;5123382;28;20204;-41
2021/05/30 11:17:41;;;;;;;3.95;3.08;;;;;;;20.55;38.89;102743.53;5124300;28;20032;-41
2021/05/30 11:20:10;;;;;;;3.70;2.63;;;;;;;20.71;40.40;102727.25;5126709;27;20028;-41
2021/05/30 11:22:46;;;;;;;4.15;2.42;;;;;;;20.91;40.35;102726.69;5121972;28;20088;-41